createdAt,value
2018-03-18T00:00:50.913Z,0
2018-03-18T00:01:51.628Z,0
2018-03-18T00:02:52.346Z,0
2018-03-18T00:03:53.060Z,0
2018-03-18T00:04:53.773Z,0
2018-03-18T00:05:54.511Z,0
2018-03-18T00:06:55.250Z,0
2018-03-18T00:07:55.964Z,0
2018-03-18T00:08:56.677Z,0
2018-03-18T00:09:57.393Z,0
2018-03-18T00:10:58.106Z,0
2018-03-18T00:11:58.844Z,0
2018-03-18T00:12:59.558Z,0
2018-03-18T00:14:00.276Z,0
2018-03-18T00:15:00.989Z,0
2018-03-18T00:16:01.705Z,0
2018-03-18T00:17:02.441Z,0
2018-03-18T00:18:03.182Z,0
2018-03-18T00:19:03.923Z,0
2018-03-18T00:20:04.665Z,0
2018-03-18T00:21:05.404Z,0
2018-03-18T00:22:06.120Z,0
2018-03-18T00:23:06.860Z,0
2018-03-18T00:24:07.575Z,0
2018-03-18T00:25:08.290Z,0
2018-03-18T00:26:09.004Z,0
2018-03-18T00:27:09.746Z,0
2018-03-18T00:28:10.486Z,0
2018-03-18T00:29:11.203Z,0
2018-03-18T00:30:11.915Z,0
2018-03-18T00:31:12.626Z,0
2018-03-18T00:32:13.364Z,0
2018-03-18T00:33:14.081Z,0
2018-03-18T00:34:14.796Z,0
2018-03-18T00:35:15.536Z,0
2018-03-18T00:36:16.251Z,0
2018-03-18T00:37:16.993Z,0
2018-03-18T00:38:17.709Z,0
2018-03-18T00:39:18.450Z,0
2018-03-18T00:40:19.177Z,0
2018-03-18T00:41:19.912Z,0
2018-03-18T00:42:20.617Z,0
2018-03-18T00:43:21.357Z,0
2018-03-18T00:44:22.096Z,0
2018-03-18T00:45:22.813Z,0
2018-03-18T00:46:23.529Z,0
2018-03-18T00:47:24.239Z,0
2018-03-18T00:48:24.955Z,0
2018-03-18T00:49:25.671Z,0
2018-03-18T00:50:26.385Z,0
2018-03-18T00:51:27.100Z,0
2018-03-18T00:52:27.840Z,0
2018-03-18T00:53:28.556Z,0
2018-03-18T00:54:29.272Z,0
2018-03-18T00:55:29.988Z,0
2018-03-18T00:56:30.703Z,0
2018-03-18T00:57:31.419Z,0
2018-03-18T00:58:32.134Z,0
2018-03-18T00:59:32.846Z,0
2018-03-18T01:00:33.566Z,0
2018-03-18T01:01:34.279Z,0
2018-03-18T01:02:34.996Z,0
2018-03-18T01:03:35.712Z,0
2018-03-18T01:04:36.428Z,0
2018-03-18T01:05:37.165Z,0
2018-03-18T01:06:37.879Z,0
2018-03-18T01:07:38.591Z,0
2018-03-18T01:08:39.321Z,0
2018-03-18T01:09:40.027Z,0
2018-03-18T01:10:40.747Z,0
2018-03-18T01:11:41.465Z,0
2018-03-18T01:12:42.171Z,0
2018-03-18T01:13:42.876Z,0
2018-03-18T01:14:43.584Z,0
2018-03-18T01:15:44.289Z,0
2018-03-18T01:16:45.008Z,0
2018-03-18T01:17:45.728Z,0
2018-03-18T01:18:46.433Z,0
2018-03-18T01:19:47.154Z,0
2018-03-18T01:20:47.876Z,0
2018-03-18T01:21:48.583Z,0
2018-03-18T01:22:49.288Z,0
2018-03-18T01:23:49.991Z,0
2018-03-18T01:24:50.712Z,0
2018-03-18T01:25:51.415Z,0
2018-03-18T01:26:52.125Z,0
2018-03-18T01:27:52.824Z,0
2018-03-18T01:28:53.529Z,0
2018-03-18T01:29:54.248Z,0
2018-03-18T01:30:54.955Z,0
2018-03-18T01:31:55.661Z,0
2018-03-18T01:32:56.381Z,0
2018-03-18T01:33:57.084Z,0
2018-03-18T01:34:57.791Z,0
2018-03-18T01:35:58.497Z,0
2018-03-18T01:36:59.203Z,0
2018-03-18T01:37:59.904Z,0
2018-03-18T01:39:00.608Z,0
2018-03-18T01:40:01.330Z,0
2018-03-18T01:41:02.038Z,0
2018-03-18T01:42:02.743Z,0
2018-03-18T01:43:03.450Z,0
2018-03-18T01:44:04.154Z,0
2018-03-18T01:45:04.859Z,0
2018-03-18T01:46:05.564Z,0
2018-03-18T01:47:06.270Z,0
2018-03-18T01:48:06.974Z,0
2018-03-18T01:49:07.677Z,0
2018-03-18T01:50:08.381Z,0
2018-03-18T01:51:09.088Z,0
2018-03-18T01:52:09.802Z,0
2018-03-18T01:53:10.507Z,0
2018-03-18T01:54:11.212Z,0
2018-03-18T01:55:11.919Z,0
2018-03-18T01:56:12.633Z,0
2018-03-18T01:57:13.343Z,0
2018-03-18T01:58:14.047Z,0
2018-03-18T01:59:14.752Z,0
2018-03-18T02:00:15.456Z,0
2018-03-18T02:01:16.160Z,0
2018-03-18T02:02:16.879Z,0
2018-03-18T02:03:17.589Z,0
2018-03-18T02:04:18.290Z,0
2018-03-18T02:05:19.029Z,0
2018-03-18T02:06:19.717Z,0
2018-03-18T02:07:20.435Z,0
2018-03-18T02:08:21.141Z,0
2018-03-18T02:09:21.846Z,0
2018-03-18T02:10:22.555Z,0
2018-03-18T02:11:23.270Z,0
2018-03-18T02:12:23.989Z,0
2018-03-18T02:13:24.695Z,0
2018-03-18T02:14:25.396Z,0
2018-03-18T02:15:26.104Z,0
2018-03-18T02:16:26.807Z,0
2018-03-18T02:17:27.526Z,0
2018-03-18T02:18:28.230Z,0
2018-03-18T02:19:28.935Z,0
2018-03-18T02:20:29.657Z,0
2018-03-18T02:21:30.364Z,0
2018-03-18T02:22:31.107Z,0
2018-03-18T02:23:31.776Z,0
2018-03-18T02:24:32.477Z,0
2018-03-18T02:25:33.181Z,0
2018-03-18T02:26:33.886Z,0
2018-03-18T02:27:34.589Z,0
2018-03-18T02:28:35.293Z,0
2018-03-18T02:29:35.999Z,0
2018-03-18T02:30:36.705Z,0
2018-03-18T02:31:37.409Z,0
2018-03-18T02:32:38.128Z,0
2018-03-18T02:33:38.840Z,0
2018-03-18T02:34:39.540Z,0
2018-03-18T02:35:40.245Z,0
2018-03-18T02:36:40.963Z,0
2018-03-18T02:37:41.668Z,0
2018-03-18T02:38:42.381Z,0
2018-03-18T02:39:43.092Z,0
2018-03-18T02:40:43.811Z,0
2018-03-18T02:41:44.519Z,0
2018-03-18T02:42:45.226Z,0
2018-03-18T02:43:45.930Z,0
2018-03-18T02:44:46.634Z,0
2018-03-18T02:45:47.343Z,0
2018-03-18T02:46:48.043Z,0
2018-03-18T02:47:48.749Z,0
2018-03-18T02:48:49.451Z,0
2018-03-18T02:49:50.171Z,0
2018-03-18T02:50:50.891Z,0
2018-03-18T02:51:51.598Z,0
2018-03-18T02:52:52.321Z,0
2018-03-18T02:53:53.042Z,0
2018-03-18T02:54:53.741Z,0
2018-03-18T02:55:54.446Z,0
2018-03-18T02:56:55.159Z,0
2018-03-18T02:57:55.861Z,0
2018-03-18T02:58:56.588Z,0
2018-03-18T02:59:57.270Z,0
2018-03-18T03:00:57.977Z,0
2018-03-18T03:01:58.681Z,0
2018-03-18T03:02:59.399Z,0
2018-03-18T03:04:00.116Z,0
2018-03-18T03:05:00.820Z,0
2018-03-18T03:06:01.525Z,0
2018-03-18T03:07:02.231Z,0
2018-03-18T03:08:02.952Z,0
2018-03-18T03:09:03.655Z,0
2018-03-18T03:10:04.357Z,0
2018-03-18T03:11:05.063Z,0
2018-03-18T03:12:05.769Z,0
2018-03-18T03:13:06.470Z,0
2018-03-18T03:14:07.175Z,0
2018-03-18T03:15:07.880Z,0
2018-03-18T03:16:08.585Z,0
2018-03-18T03:17:09.290Z,0
2018-03-18T03:18:09.995Z,0
2018-03-18T03:19:10.698Z,0
2018-03-18T03:20:11.404Z,0
2018-03-18T03:21:12.123Z,0
2018-03-18T03:22:12.828Z,0
2018-03-18T03:23:13.549Z,0
2018-03-18T03:24:14.268Z,0
2018-03-18T03:25:14.991Z,0
2018-03-18T03:26:15.697Z,0
2018-03-18T03:27:16.402Z,0
2018-03-18T03:28:17.109Z,0
2018-03-18T03:29:17.810Z,0
2018-03-18T03:30:18.517Z,0
2018-03-18T03:31:19.235Z,0
2018-03-18T03:32:19.941Z,0
2018-03-18T03:33:20.647Z,0
2018-03-18T03:34:21.349Z,0
2018-03-18T03:35:22.053Z,0
2018-03-18T03:36:22.773Z,0
2018-03-18T03:37:23.498Z,0
2018-03-18T03:38:24.199Z,0
2018-03-18T03:39:24.906Z,0
2018-03-18T03:40:25.608Z,0
2018-03-18T03:41:26.312Z,0
2018-03-18T03:42:27.019Z,0
2018-03-18T03:43:27.724Z,0
2018-03-18T03:44:28.445Z,0
2018-03-18T03:45:29.149Z,0
2018-03-18T03:46:29.854Z,0
2018-03-18T03:47:30.564Z,0
2018-03-18T03:48:31.276Z,0
2018-03-18T03:49:31.982Z,0
2018-03-18T03:50:32.689Z,0
2018-03-18T03:51:33.394Z,0
2018-03-18T03:52:34.100Z,0
2018-03-18T03:53:34.819Z,0
2018-03-18T03:54:35.526Z,0
2018-03-18T03:55:36.245Z,0
2018-03-18T03:56:36.963Z,0
2018-03-18T03:57:37.668Z,0
2018-03-18T03:58:38.373Z,0
2018-03-18T03:59:39.079Z,0
2018-03-18T04:00:39.798Z,0
2018-03-18T04:01:40.503Z,0
2018-03-18T04:02:41.222Z,0
2018-03-18T04:03:41.925Z,0
2018-03-18T04:04:42.629Z,0
2018-03-18T04:05:43.333Z,0
2018-03-18T04:06:44.039Z,0
2018-03-18T04:07:44.761Z,0
2018-03-18T04:08:45.465Z,0
2018-03-18T04:09:46.183Z,0
2018-03-18T04:10:46.888Z,0
2018-03-18T04:11:47.591Z,0
2018-03-18T04:12:48.348Z,0
2018-03-18T04:13:49.001Z,0
2018-03-18T04:14:49.719Z,0
2018-03-18T04:15:50.426Z,0
2018-03-18T04:16:51.147Z,0
2018-03-18T04:17:51.867Z,0
2018-03-18T04:18:52.569Z,0
2018-03-18T04:19:53.275Z,0
2018-03-18T04:20:53.978Z,0
2018-03-18T04:21:54.682Z,0
2018-03-18T04:22:55.388Z,0
2018-03-18T04:23:56.108Z,0
2018-03-18T04:24:56.826Z,0
2018-03-18T04:25:57.529Z,0
2018-03-18T04:26:58.233Z,0
2018-03-18T04:27:58.955Z,0
2018-03-18T04:28:59.670Z,0
2018-03-18T04:30:00.367Z,0
2018-03-18T04:31:01.071Z,0
2018-03-18T04:32:01.775Z,0
2018-03-18T04:33:02.494Z,0
2018-03-18T04:34:03.202Z,0
2018-03-18T04:35:03.906Z,0
2018-03-18T04:36:04.614Z,0
2018-03-18T04:37:05.312Z,0
2018-03-18T04:38:06.017Z,0
2018-03-18T04:39:06.721Z,0
2018-03-18T04:40:07.429Z,0
2018-03-18T04:41:08.131Z,0
2018-03-18T04:42:08.838Z,0
2018-03-18T04:43:09.540Z,0
2018-03-18T04:44:10.244Z,0
2018-03-18T04:45:10.948Z,0
2018-03-18T04:46:11.666Z,0
2018-03-18T04:47:12.369Z,0
2018-03-18T04:48:13.073Z,0
2018-03-18T04:49:13.777Z,0
2018-03-18T04:50:14.494Z,0
2018-03-18T04:51:15.198Z,0
2018-03-18T04:52:15.902Z,0
2018-03-18T04:53:16.608Z,0
2018-03-18T04:54:17.312Z,0
2018-03-18T04:55:18.019Z,0
2018-03-18T04:56:18.723Z,0
2018-03-18T04:57:19.445Z,0
2018-03-18T04:58:20.148Z,0
2018-03-18T04:59:20.853Z,0
2018-03-18T05:00:21.572Z,0
2018-03-18T05:01:22.277Z,0
2018-03-18T05:02:22.983Z,0
2018-03-18T05:03:23.688Z,0
2018-03-18T05:04:24.396Z,0
2018-03-18T05:05:25.112Z,0
2018-03-18T05:06:25.819Z,0
2018-03-18T05:07:26.523Z,0
2018-03-18T05:08:27.239Z,0
2018-03-18T05:09:27.945Z,4
2018-03-18T05:10:28.650Z,0
2018-03-18T05:11:29.359Z,0
2018-03-18T05:12:30.061Z,4
2018-03-18T05:13:30.765Z,4
2018-03-18T05:14:31.467Z,4
2018-03-18T05:15:32.171Z,8
2018-03-18T05:16:32.892Z,8
2018-03-18T05:17:33.613Z,8
2018-03-18T05:18:34.323Z,8
2018-03-18T05:19:35.023Z,8
2018-03-18T05:20:35.729Z,16
2018-03-18T05:21:36.468Z,12
2018-03-18T05:22:37.157Z,16
2018-03-18T05:23:37.864Z,20
2018-03-18T05:24:38.568Z,24
2018-03-18T05:25:39.278Z,28
2018-03-18T05:26:39.984Z,32
2018-03-18T05:27:40.685Z,40
2018-03-18T05:28:41.392Z,40
2018-03-18T05:29:42.100Z,44
2018-03-18T05:30:42.805Z,52
2018-03-18T05:31:43.512Z,56
2018-03-18T05:32:44.232Z,68
2018-03-18T05:33:44.940Z,72
2018-03-18T05:34:45.645Z,80
2018-03-18T05:35:46.353Z,88
2018-03-18T05:36:47.056Z,100
2018-03-18T05:37:47.765Z,108
2018-03-18T05:38:48.473Z,120
2018-03-18T05:39:49.181Z,128
2018-03-18T05:40:49.909Z,140
2018-03-18T05:41:50.625Z,136
2018-03-18T05:42:51.332Z,164
2018-03-18T05:43:52.039Z,176
2018-03-18T05:44:52.760Z,192
2018-03-18T05:45:53.481Z,208
2018-03-18T05:46:54.187Z,220
2018-03-18T05:47:54.896Z,240
2018-03-18T05:48:55.604Z,252
2018-03-18T05:49:56.316Z,264
2018-03-18T05:50:57.021Z,288
2018-03-18T05:51:57.731Z,304
2018-03-18T05:52:58.438Z,328
2018-03-18T05:53:59.145Z,352
2018-03-18T05:54:59.854Z,368
2018-03-18T05:56:00.576Z,392
2018-03-18T05:57:01.286Z,412
2018-03-18T05:58:01.997Z,440
2018-03-18T05:59:02.706Z,464
2018-03-18T06:00:03.413Z,504
2018-03-18T06:01:04.123Z,528
2018-03-18T06:02:04.847Z,568
2018-03-18T06:03:05.559Z,600
2018-03-18T06:04:06.282Z,640
2018-03-18T06:05:06.982Z,676
2018-03-18T06:06:07.707Z,712
2018-03-18T06:07:08.417Z,752
2018-03-18T06:08:09.122Z,800
2018-03-18T06:09:09.828Z,808
2018-03-18T06:10:10.540Z,892
2018-03-18T06:11:11.261Z,952
2018-03-18T06:12:11.972Z,992
2018-03-18T06:13:12.680Z,1068
2018-03-18T06:14:13.388Z,1120
2018-03-18T06:15:14.097Z,1116
2018-03-18T06:16:14.808Z,1252
2018-03-18T06:17:15.517Z,1324
2018-03-18T06:18:16.228Z,1392
2018-03-18T06:19:16.939Z,1452
2018-03-18T06:20:17.648Z,1548
2018-03-18T06:21:18.358Z,1588
2018-03-18T06:22:19.073Z,1704
2018-03-18T06:23:19.775Z,1772
2018-03-18T06:24:20.485Z,1860
2018-03-18T06:25:21.192Z,1912
2018-03-18T06:26:21.905Z,2008
2018-03-18T06:27:22.616Z,2068
2018-03-18T06:28:23.347Z,2132
2018-03-18T06:29:24.036Z,2208
2018-03-18T06:30:24.747Z,2284
2018-03-18T06:31:25.469Z,2240
2018-03-18T06:32:26.169Z,2440
2018-03-18T06:33:26.880Z,2508
2018-03-18T06:34:27.589Z,2568
2018-03-18T06:35:28.311Z,2652
2018-03-18T06:36:29.037Z,2728
2018-03-18T06:37:29.796Z,2820
2018-03-18T06:38:30.469Z,2920
2018-03-18T06:39:31.179Z,2908
2018-03-18T06:40:31.906Z,3068
2018-03-18T06:41:32.613Z,3144
2018-03-18T06:42:33.322Z,3204
2018-03-18T06:43:34.031Z,3264
2018-03-18T06:44:34.744Z,3340
2018-03-18T06:45:35.455Z,3412
2018-03-18T06:46:36.180Z,3460
2018-03-18T06:47:36.907Z,3380
2018-03-18T06:48:37.631Z,3480
2018-03-18T06:49:38.342Z,3516
2018-03-18T06:50:39.054Z,3572
2018-03-18T06:51:39.767Z,3616
2018-03-18T06:52:40.492Z,3696
2018-03-18T06:53:41.205Z,3728
2018-03-18T06:54:41.916Z,3704
2018-03-18T06:55:42.627Z,3792
2018-03-18T06:56:43.337Z,3828
2018-03-18T06:57:44.049Z,3984
2018-03-18T06:58:44.760Z,4012
2018-03-18T06:59:45.477Z,4044
2018-03-18T07:00:46.195Z,4072
2018-03-18T07:01:46.908Z,4040
2018-03-18T07:02:47.619Z,4108
2018-03-18T07:03:48.330Z,4136
2018-03-18T07:04:49.042Z,4308
2018-03-18T07:05:49.755Z,4696
2018-03-18T07:06:50.465Z,4228
2018-03-18T07:07:51.178Z,4056
2018-03-18T07:08:51.889Z,4180
2018-03-18T07:09:52.607Z,4284
2018-03-18T07:10:53.313Z,4208
2018-03-18T07:11:54.028Z,4504
2018-03-18T07:12:54.748Z,4572
2018-03-18T07:13:55.458Z,4452
2018-03-18T07:14:56.183Z,4656
2018-03-18T07:15:56.912Z,4796
2018-03-18T07:16:57.636Z,4972
2018-03-18T07:17:58.362Z,5044
2018-03-18T07:18:59.075Z,5224
2018-03-18T07:19:59.799Z,5580
2018-03-18T07:21:00.500Z,6120
2018-03-18T07:22:01.213Z,5840
2018-03-18T07:23:01.939Z,5740
2018-03-18T07:24:02.649Z,6036
2018-03-18T07:25:03.373Z,6772
2018-03-18T07:26:04.086Z,8304
2018-03-18T07:27:04.811Z,6260
2018-03-18T07:28:05.525Z,6036
2018-03-18T07:29:06.236Z,7176
2018-03-18T07:30:06.965Z,5876
2018-03-18T07:31:07.675Z,5696
2018-03-18T07:32:08.387Z,5172
2018-03-18T07:33:09.110Z,5276
2018-03-18T07:34:09.813Z,5376
2018-03-18T07:35:10.523Z,5332
2018-03-18T07:36:11.237Z,5308
2018-03-18T07:37:11.947Z,5188
2018-03-18T07:38:12.659Z,5168
2018-03-18T07:39:13.395Z,4808
2018-03-18T07:40:14.113Z,5164
2018-03-18T07:41:14.826Z,5244
2018-03-18T07:42:15.553Z,5116
2018-03-18T07:43:16.267Z,4804
2018-03-18T07:44:16.999Z,5048
2018-03-18T07:45:17.705Z,5024
2018-03-18T07:46:18.415Z,5016
2018-03-18T07:47:19.174Z,4816
2018-03-18T07:48:19.844Z,4836
2018-03-18T07:49:20.570Z,5228
2018-03-18T07:50:21.293Z,5248
2018-03-18T07:51:22.007Z,5284
2018-03-18T07:52:22.719Z,5444
2018-03-18T07:53:23.495Z,5248
2018-03-18T07:54:24.151Z,5540
2018-03-18T07:55:24.865Z,5740
2018-03-18T07:56:25.585Z,5860
2018-03-18T07:57:26.305Z,6096
2018-03-18T07:58:27.022Z,6192
2018-03-18T07:59:27.728Z,6304
2018-03-18T08:00:28.441Z,6532
2018-03-18T08:01:29.155Z,6576
2018-03-18T08:02:29.866Z,6672
2018-03-18T08:03:30.580Z,6724
2018-03-18T08:04:31.290Z,6740
2018-03-18T08:05:32.005Z,6728
2018-03-18T08:06:32.719Z,6796
2018-03-18T08:07:33.444Z,6728
2018-03-18T08:08:34.156Z,7008
2018-03-18T08:09:34.870Z,7056
2018-03-18T08:10:35.584Z,7072
2018-03-18T08:11:36.296Z,7132
2018-03-18T08:12:37.009Z,7236
2018-03-18T08:13:37.726Z,7284
2018-03-18T08:14:38.435Z,7044
2018-03-18T08:15:39.146Z,7532
2018-03-18T08:16:39.862Z,7188
2018-03-18T08:17:40.584Z,7480
2018-03-18T08:18:41.297Z,7792
2018-03-18T08:19:42.012Z,7664
2018-03-18T08:20:42.738Z,7672
2018-03-18T08:21:43.450Z,7604
2018-03-18T08:22:44.165Z,7432
2018-03-18T08:23:44.879Z,7644
2018-03-18T08:24:45.591Z,7720
2018-03-18T08:25:46.305Z,7856
2018-03-18T08:26:47.017Z,7972
2018-03-18T08:27:47.731Z,8052
2018-03-18T08:28:48.457Z,8156
2018-03-18T08:29:49.171Z,8436
2018-03-18T08:30:49.881Z,8288
2018-03-18T08:31:50.594Z,8324
2018-03-18T08:32:51.310Z,7984
2018-03-18T08:33:52.023Z,8512
2018-03-18T08:34:52.748Z,8476
2018-03-18T08:35:53.467Z,8408
2018-03-18T08:36:54.186Z,8480
2018-03-18T08:37:54.911Z,8508
2018-03-18T08:38:55.627Z,8676
2018-03-18T08:39:56.340Z,8444
2018-03-18T08:40:57.061Z,9800
2018-03-18T08:41:57.767Z,9308
2018-03-18T08:42:58.480Z,9340
2018-03-18T08:43:59.198Z,9440
2018-03-18T08:44:59.906Z,9856
2018-03-18T08:46:00.620Z,9536
2018-03-18T08:47:01.333Z,9920
2018-03-18T08:48:02.046Z,10928
2018-03-18T08:49:02.762Z,11224
2018-03-18T08:50:03.478Z,10848
2018-03-18T08:51:04.190Z,10644
2018-03-18T08:52:04.903Z,10020
2018-03-18T08:53:05.621Z,10308
2018-03-18T08:54:06.331Z,10420
2018-03-18T08:55:07.061Z,10488
2018-03-18T08:56:07.775Z,10588
2018-03-18T08:57:08.488Z,10536
2018-03-18T08:58:09.218Z,10324
2018-03-18T08:59:09.933Z,10576
2018-03-18T09:00:10.663Z,10756
2018-03-18T09:01:11.374Z,10688
2018-03-18T09:02:12.092Z,11200
2018-03-18T09:03:12.803Z,11360
2018-03-18T09:04:13.517Z,11364
2018-03-18T09:05:14.231Z,10644
2018-03-18T09:06:14.945Z,11016
2018-03-18T09:07:15.675Z,11148
2018-03-18T09:08:16.390Z,11112
2018-03-18T09:09:17.120Z,11108
2018-03-18T09:10:17.833Z,11180
2018-03-18T09:11:18.550Z,11796
2018-03-18T09:12:19.263Z,12112
2018-03-18T09:13:19.977Z,12256
2018-03-18T09:14:20.697Z,11352
2018-03-18T09:15:21.404Z,11952
2018-03-18T09:16:22.129Z,12296
2018-03-18T09:17:22.844Z,12388
2018-03-18T09:18:23.560Z,12388
2018-03-18T09:19:24.277Z,12484
2018-03-18T09:20:25.000Z,12508
2018-03-18T09:21:25.724Z,12164
2018-03-18T09:22:26.431Z,12028
2018-03-18T09:23:27.146Z,12512
2018-03-18T09:24:27.864Z,12804
2018-03-18T09:25:28.593Z,12588
2018-03-18T09:26:29.320Z,13012
2018-03-18T09:27:30.034Z,12956
2018-03-18T09:28:30.751Z,13356
2018-03-18T09:29:31.472Z,13864
2018-03-18T09:30:32.182Z,14852
2018-03-18T09:31:32.897Z,14544
2018-03-18T09:32:33.612Z,15520
2018-03-18T09:33:34.335Z,16204
2018-03-18T09:34:35.056Z,16896
2018-03-18T09:35:35.822Z,18496
2018-03-18T09:36:36.488Z,18944
2018-03-18T09:37:37.220Z,20192
2018-03-18T09:38:37.936Z,19904
2018-03-18T09:39:38.668Z,20192
2018-03-18T09:40:39.384Z,19424
2018-03-18T09:41:40.164Z,20192
2018-03-18T09:42:40.830Z,19072
2018-03-18T09:43:41.548Z,19648
2018-03-18T09:44:42.263Z,20768
2018-03-18T09:45:42.981Z,23552
2018-03-18T09:46:43.698Z,24768
2018-03-18T09:47:44.412Z,40064
2018-03-18T09:48:45.131Z,46368
2018-03-18T09:49:45.851Z,54496
2018-03-18T09:50:46.570Z,31680
2018-03-18T09:51:47.288Z,25376
2018-03-18T09:52:48.005Z,26816
2018-03-18T09:53:48.728Z,25920
2018-03-18T09:54:49.486Z,25088
2018-03-18T09:55:50.173Z,23744
2018-03-18T09:56:50.914Z,23584
2018-03-18T09:57:51.639Z,23648
2018-03-18T09:58:52.360Z,22336
2018-03-18T09:59:53.076Z,22848
2018-03-18T10:00:53.808Z,22304
2018-03-18T10:01:54.528Z,22592
2018-03-18T10:02:55.247Z,22720
2018-03-18T10:03:55.965Z,24000
2018-03-18T10:04:56.683Z,28864
2018-03-18T10:05:57.401Z,23328
2018-03-18T10:06:58.131Z,23968
2018-03-18T10:07:58.847Z,32064
2018-03-18T10:08:59.566Z,41376
2018-03-18T10:10:00.288Z,35968
2018-03-18T10:11:01.007Z,32672
2018-03-18T10:12:01.726Z,28864
2018-03-18T10:13:02.446Z,46176
2018-03-18T10:14:03.265Z,30496
2018-03-18T10:15:03.896Z,28128
2018-03-18T10:16:04.614Z,26528
2018-03-18T10:17:05.334Z,26784
2018-03-18T10:18:06.051Z,24480
2018-03-18T10:19:06.772Z,24608
2018-03-18T10:20:07.491Z,26144
2018-03-18T10:21:08.223Z,23776
2018-03-18T10:22:08.941Z,28896
2018-03-18T10:23:09.663Z,25344
2018-03-18T10:24:10.393Z,26528
2018-03-18T10:25:11.114Z,25536
2018-03-18T10:26:11.832Z,25312
2018-03-18T10:27:12.553Z,24192
2018-03-18T10:28:13.270Z,24224
2018-03-18T10:29:13.986Z,23840
2018-03-18T10:30:14.704Z,24576
2018-03-18T10:31:15.423Z,24608
2018-03-18T10:32:16.141Z,25440
2018-03-18T10:33:16.860Z,25792
2018-03-18T10:34:17.578Z,26016
2018-03-18T10:35:18.298Z,26176
2018-03-18T10:36:19.029Z,26496
2018-03-18T10:37:19.761Z,22336
2018-03-18T10:38:20.479Z,21120
2018-03-18T10:39:21.215Z,21504
2018-03-18T10:40:21.943Z,21088
2018-03-18T10:41:22.660Z,21568
2018-03-18T10:42:23.392Z,21216
2018-03-18T10:43:24.110Z,21472
2018-03-18T10:44:24.829Z,21632
2018-03-18T10:45:25.547Z,21888
2018-03-18T10:46:26.265Z,22080
2018-03-18T10:47:26.984Z,22176
2018-03-18T10:48:27.700Z,21824
2018-03-18T10:49:28.432Z,21952
2018-03-18T10:50:29.150Z,21280
2018-03-18T10:51:29.868Z,22432
2018-03-18T10:52:30.585Z,22496
2018-03-18T10:53:31.338Z,24704
2018-03-18T10:54:32.021Z,28128
2018-03-18T10:55:32.740Z,36800
2018-03-18T10:56:33.459Z,28384
2018-03-18T10:57:34.176Z,29056
2018-03-18T10:58:34.908Z,29664
2018-03-18T10:59:35.626Z,26976
2018-03-18T11:00:36.345Z,24864
2018-03-18T11:01:37.064Z,26912
2018-03-18T11:02:37.782Z,24544
2018-03-18T11:03:38.510Z,24416
2018-03-18T11:04:39.228Z,24768
2018-03-18T11:05:39.959Z,24352
2018-03-18T11:06:40.678Z,25376
2018-03-18T11:07:41.396Z,25600
2018-03-18T11:08:42.114Z,25920
2018-03-18T11:09:42.833Z,25280
2018-03-18T11:10:43.554Z,24128
2018-03-18T11:11:44.284Z,24992
2018-03-18T11:12:45.002Z,24960
2018-03-18T11:13:45.718Z,24320
2018-03-18T11:14:46.452Z,24768
2018-03-18T11:15:47.183Z,24448
2018-03-18T11:16:47.914Z,24320
2018-03-18T11:17:48.643Z,24416
2018-03-18T11:18:49.361Z,25216
2018-03-18T11:19:50.080Z,26464
2018-03-18T11:20:50.799Z,28256
2018-03-18T11:21:51.529Z,29856
2018-03-18T11:22:52.248Z,29856
2018-03-18T11:23:53.005Z,29728
2018-03-18T11:24:53.691Z,29088
2018-03-18T11:25:54.409Z,27072
2018-03-18T11:26:55.129Z,25888
2018-03-18T11:27:55.864Z,27392
2018-03-18T11:28:56.582Z,30176
2018-03-18T11:29:57.300Z,28096
2018-03-18T11:30:58.019Z,27904
2018-03-18T11:31:58.737Z,28288
2018-03-18T11:32:59.456Z,29088
2018-03-18T11:34:00.175Z,30528
2018-03-18T11:35:00.907Z,30816
2018-03-18T11:36:01.630Z,31968
2018-03-18T11:37:02.343Z,33184
2018-03-18T11:38:03.061Z,32832
2018-03-18T11:39:03.781Z,35328
2018-03-18T11:40:04.504Z,41504
2018-03-18T11:41:05.225Z,40032
2018-03-18T11:42:05.946Z,39872
2018-03-18T11:43:06.667Z,41280
2018-03-18T11:44:07.388Z,39552
2018-03-18T11:45:08.115Z,35360
2018-03-18T11:46:08.830Z,33600
2018-03-18T11:47:09.579Z,34400
2018-03-18T11:48:10.274Z,32448
2018-03-18T11:49:10.995Z,38176
2018-03-18T11:50:11.716Z,35616
2018-03-18T11:51:12.452Z,34464
2018-03-18T11:52:13.179Z,34368
2018-03-18T11:53:13.907Z,31136
2018-03-18T11:54:14.640Z,30080
2018-03-18T11:55:15.360Z,34752
2018-03-18T11:56:16.080Z,34560
2018-03-18T11:57:16.802Z,40576
2018-03-18T11:58:17.530Z,47648
2018-03-18T11:59:18.270Z,49824
2018-03-18T12:00:19.000Z,58304
2018-03-18T12:01:19.722Z,56256
2018-03-18T12:02:20.445Z,65984
2018-03-18T12:03:21.171Z,65152
2018-03-18T12:04:21.893Z,57312
2018-03-18T12:05:22.620Z,61152
2018-03-18T12:06:23.347Z,62080
2018-03-18T12:07:24.071Z,55584
2018-03-18T12:08:24.797Z,70976
2018-03-18T12:09:25.536Z,57440
2018-03-18T12:10:26.255Z,57664
2018-03-18T12:11:26.983Z,62240
2018-03-18T12:12:27.719Z,70720
2018-03-18T12:13:28.462Z,64256
2018-03-18T12:14:29.190Z,53632
2018-03-18T12:15:29.918Z,64256
2018-03-18T12:16:30.646Z,66080
2018-03-18T12:17:31.390Z,68544
2018-03-18T12:18:32.117Z,65056
2018-03-18T12:19:32.860Z,60736
2018-03-18T12:20:33.602Z,61376
2018-03-18T12:21:34.344Z,61568
2018-03-18T12:22:35.062Z,64896
2018-03-18T12:23:35.806Z,60704
2018-03-18T12:24:36.534Z,62848
2018-03-18T12:25:37.264Z,58400
2018-03-18T12:26:37.992Z,60224
2018-03-18T12:27:38.747Z,61824
2018-03-18T12:28:39.481Z,59712
2018-03-18T12:29:40.209Z,59328
2018-03-18T12:30:40.937Z,58144
2018-03-18T12:31:41.682Z,59744
2018-03-18T12:32:42.412Z,56000
2018-03-18T12:33:43.140Z,56448
2018-03-18T12:34:43.885Z,55968
2018-03-18T12:35:44.625Z,57440
2018-03-18T12:36:45.355Z,55552
2018-03-18T12:37:46.095Z,54752
2018-03-18T12:38:46.827Z,55808
2018-03-18T12:39:47.557Z,54848
2018-03-18T12:40:48.285Z,55744
2018-03-18T12:41:49.027Z,54624
2018-03-18T12:42:49.758Z,53152
2018-03-18T12:43:50.489Z,52576
2018-03-18T12:44:51.217Z,52352
2018-03-18T12:45:51.949Z,52576
2018-03-18T12:46:52.679Z,52032
2018-03-18T12:47:53.408Z,53216
2018-03-18T12:48:54.136Z,53088
2018-03-18T12:49:54.864Z,53312
2018-03-18T12:50:55.592Z,51808
2018-03-18T12:51:56.323Z,49376
2018-03-18T12:52:57.056Z,49024
2018-03-18T12:53:57.793Z,47136
2018-03-18T12:54:58.520Z,47040
2018-03-18T12:55:59.251Z,46880
2018-03-18T12:56:59.995Z,47072
2018-03-18T12:58:00.724Z,47200
2018-03-18T12:59:01.457Z,47648
2018-03-18T13:00:02.193Z,46816
2018-03-18T13:01:02.934Z,45504
2018-03-18T13:02:03.664Z,44832
2018-03-18T13:03:04.406Z,44384
2018-03-18T13:04:05.150Z,44480
2018-03-18T13:05:05.885Z,44800
2018-03-18T13:06:06.608Z,45056
2018-03-18T13:07:07.338Z,44864
2018-03-18T13:08:08.064Z,46016
2018-03-18T13:09:08.791Z,46464
2018-03-18T13:10:09.520Z,45088
2018-03-18T13:11:10.247Z,44352
2018-03-18T13:12:10.994Z,43840
2018-03-18T13:13:11.715Z,41952
2018-03-18T13:14:12.456Z,43776
2018-03-18T13:15:13.183Z,43872
2018-03-18T13:16:13.912Z,43840
2018-03-18T13:17:14.654Z,42976
2018-03-18T13:18:15.383Z,43136
2018-03-18T13:19:16.120Z,42592
2018-03-18T13:20:16.847Z,44224
2018-03-18T13:21:17.576Z,44480
2018-03-18T13:22:18.303Z,44640
2018-03-18T13:23:19.030Z,44032
2018-03-18T13:24:19.772Z,43296
2018-03-18T13:25:20.500Z,42496
2018-03-18T13:26:21.228Z,42688
2018-03-18T13:27:21.959Z,43040
2018-03-18T13:28:22.683Z,43552
2018-03-18T13:29:23.414Z,44768
2018-03-18T13:30:24.160Z,45568
2018-03-18T13:31:24.906Z,45568
2018-03-18T13:32:25.637Z,45920
2018-03-18T13:33:26.374Z,43104
2018-03-18T13:34:27.101Z,42912
2018-03-18T13:35:27.835Z,43008
2018-03-18T13:36:28.555Z,42240
2018-03-18T13:37:29.285Z,41120
2018-03-18T13:38:30.011Z,41344
2018-03-18T13:39:30.739Z,40320
2018-03-18T13:40:31.467Z,38912
2018-03-18T13:41:32.194Z,39520
2018-03-18T13:42:32.922Z,39136
2018-03-18T13:43:33.648Z,38176
2018-03-18T13:44:34.376Z,36800
2018-03-18T13:45:35.107Z,36896
2018-03-18T13:46:35.845Z,38016
2018-03-18T13:47:36.575Z,38048
2018-03-18T13:48:37.299Z,39040
2018-03-18T13:49:38.025Z,39808
2018-03-18T13:50:38.748Z,40736
2018-03-18T13:51:39.474Z,39424
2018-03-18T13:52:40.201Z,37376